Mendon - 24 Hour Table
Date & TimeSolar
Radiation
(W/m²)
Wind
Speed
(mph)
Wind
Direction
(degrees)
Air
Temperature
(°F)
Relative
Humidity
(%)
Precipitation
(inches)
2024/05/26 01:00 2 0.0 114 42.3 98 0.00
2024/05/26 00:00 2 0.0 165 41.8 98 0.00
2024/05/25 23:00 2 0.0 155 42.4 97 0.00
2024/05/25 22:00 2 0.0 114 43.3 96 0.00
2024/05/25 21:00 2 0.0 128 45.1 95 0.01
2024/05/25 20:00 8 0.0 115 49.7 91 0.00
2024/05/25 19:00 45 0.0 90 52.8 79 0.00
2024/05/25 18:00 86 0.0 122 53.0 81 0.00
2024/05/25 17:00 114 0.0 98 52.4 83 0.00
2024/05/25 16:00 185 0.0 91 51.0 89 0.01
2024/05/25 15:00 101 0.0 93 49.7 97 0.00
2024/05/25 14:00 131 0.0 96 48.9 97 0.01
2024/05/25 13:00 59 0.0 84 47.6 97 0.01
2024/05/25 12:00 13 0.0 94 48.7 95 0.01
2024/05/25 11:00 35 0.0 85 52.4 86 0.01
2024/05/25 10:00 50 0.0 89 56.5 71 0.00
2024/05/25 09:00 116 0.0 91 56.8 55 0.00
2024/05/25 08:00 83 0.0 116 52.7 71 0.00
2024/05/25 07:00 52 0.0 99 49.0 74 0.00
2024/05/25 06:00 14 0.0 146 47.0 78 0.00
2024/05/25 05:00 2 0.0 119 46.8 84 0.00
2024/05/25 04:00 2 0.0 102 48.3 78 0.00
2024/05/25 03:00 2 0.0 105 49.1 71 0.00
2024/05/25 02:00 2 0.0 106 50.3 66 0.00